createdAt,value
2019-04-01T03:17:09.511Z,37.13
2019-04-01T03:19:39.092Z,40.53
2019-04-01T03:22:08.083Z,38.70
2019-04-01T03:24:37.143Z,37.83
2019-04-01T03:27:06.427Z,40.80
2019-04-01T03:29:35.380Z,41.40
2019-04-01T03:32:04.530Z,38.23
2019-04-01T03:34:33.623Z,40.13
2019-04-01T03:37:02.768Z,41.70
2019-04-01T03:39:31.727Z,41.10
2019-04-01T03:42:00.645Z,41.73
2019-04-01T03:44:29.787Z,42.40
2019-04-01T03:46:59.131Z,44.37
2019-04-01T03:49:28.134Z,41.00
2019-04-01T03:51:57.127Z,43.07
2019-04-01T03:54:26.248Z,43.60
2019-04-01T03:56:55.349Z,43.70
2019-04-01T03:59:24.447Z,45.40
2019-04-01T04:01:53.698Z,44.50
2019-04-01T04:04:22.832Z,43.70
2019-04-01T04:06:51.975Z,42.37
2019-04-01T04:09:21.029Z,44.03
2019-04-01T04:11:50.167Z,40.70
2019-04-01T04:14:19.161Z,43.00
2019-04-01T04:16:48.151Z,43.97
2019-04-01T04:19:17.243Z,44.30
2019-04-01T04:21:46.323Z,43.90
2019-04-01T04:24:15.417Z,45.10
2019-04-01T04:26:44.484Z,44.30
2019-04-01T04:29:13.530Z,46.17
2019-04-01T04:31:42.542Z,43.90
2019-04-01T04:34:11.647Z,45.37
2019-04-01T04:36:40.655Z,45.80
2019-04-01T04:39:09.739Z,44.70
2019-04-01T04:41:38.856Z,44.40
2019-04-01T04:44:07.884Z,42.33
2019-04-01T04:49:16.058Z,46.30
2019-04-01T04:51:45.116Z,48.20
2019-04-01T04:54:14.135Z,44.53
2019-04-01T04:56:43.203Z,46.60
2019-04-01T04:59:12.491Z,42.37
2019-04-01T05:01:41.910Z,45.17
2019-04-01T05:04:11.111Z,44.80
2019-04-01T05:06:40.538Z,44.50
2019-04-01T05:09:09.602Z,45.37
2019-04-01T05:11:38.593Z,46.90
2019-04-01T05:14:29.814Z,44.80
2019-04-01T05:16:58.788Z,45.90
2019-04-01T05:19:27.871Z,45.30
2019-04-01T05:21:58.035Z,46.80
2019-04-01T05:24:28.158Z,44.03
2019-04-01T05:26:58.167Z,45.83
2019-04-01T05:29:29.608Z,45.47
2019-04-01T05:31:59.634Z,45.57
2019-04-01T05:34:30.004Z,44.50
2019-04-01T05:36:59.119Z,44.47
2019-04-01T05:39:28.567Z,42.90
2019-04-01T05:41:57.637Z,44.47
2019-04-01T05:44:27.348Z,43.70
2019-04-01T05:46:56.330Z,44.50
2019-04-01T05:49:25.438Z,46.70
2019-04-01T05:51:54.521Z,45.07
2019-04-01T05:54:23.738Z,43.67
2019-04-01T05:56:53.168Z,45.00
2019-04-01T05:59:22.255Z,40.60
2019-04-01T06:01:51.443Z,45.00
2019-04-01T06:04:20.645Z,45.30
2019-04-01T06:06:49.750Z,42.40
2019-04-01T06:09:18.897Z,43.47
2019-04-01T06:11:48.057Z,38.90
2019-04-01T06:14:17.239Z,38.77
2019-04-01T06:16:46.262Z,39.47
2019-04-01T06:19:15.493Z,39.53
2019-04-01T06:21:44.678Z,39.40
2019-04-01T06:24:13.688Z,38.23
2019-04-01T06:26:42.766Z,35.90
2019-04-01T06:29:11.774Z,36.03
2019-04-01T06:31:40.931Z,33.67
2019-04-01T06:34:10.013Z,35.33
2019-04-01T06:36:39.131Z,33.63
2019-04-01T06:39:08.231Z,33.13
2019-04-01T06:41:37.310Z,34.87
2019-04-01T06:44:06.370Z,33.80
2019-04-01T06:46:35.552Z,34.53
2019-04-01T06:49:04.946Z,33.23
2019-04-01T06:51:34.032Z,30.90
2019-04-01T06:54:03.146Z,33.63
2019-04-01T06:56:32.266Z,32.67
2019-04-01T06:59:01.323Z,35.83
2019-04-01T07:01:30.311Z,34.30
2019-04-01T07:03:59.762Z,32.05
2019-04-01T07:06:28.860Z,31.63
2019-04-01T07:08:57.936Z,30.50
2019-04-01T07:11:27.021Z,32.10
2019-04-01T07:13:56.239Z,31.77
2019-04-01T07:16:25.650Z,32.10
2019-04-01T07:18:54.822Z,31.07
2019-04-01T07:21:23.912Z,29.20
2019-04-01T07:23:53.079Z,31.50
2019-04-01T07:26:22.159Z,31.70
2019-04-01T07:28:51.099Z,31.40
2019-04-01T07:31:20.194Z,29.40
2019-04-01T07:33:49.301Z,28.90
2019-04-01T07:36:18.409Z,29.00
2019-04-01T07:38:47.510Z,29.80
2019-04-01T07:41:16.682Z,30.43
2019-04-01T07:43:45.877Z,30.10
2019-04-01T07:46:15.055Z,27.73
2019-04-01T07:48:44.345Z,27.83
2019-04-01T07:51:13.526Z,29.40
2019-04-01T07:53:43.115Z,28.90
2019-04-01T07:56:12.270Z,29.07
2019-04-01T07:58:41.346Z,29.30
2019-04-01T08:01:10.451Z,31.70
2019-04-01T08:03:41.924Z,28.93
2019-04-01T08:06:10.336Z,28.67
2019-04-01T08:08:39.328Z,30.20
2019-04-01T08:11:08.459Z,28.70
2019-04-01T08:13:37.620Z,29.00
2019-04-01T08:16:06.611Z,29.13
2019-04-01T08:18:35.696Z,26.43
2019-04-01T08:21:04.749Z,29.17
2019-04-01T08:23:33.855Z,27.80
2019-04-01T08:26:03.092Z,29.70
2019-04-01T08:28:32.178Z,29.23
2019-04-01T08:31:01.304Z,27.43
2019-04-01T08:33:30.382Z,27.37
2019-04-01T08:35:59.562Z,27.30
2019-04-01T08:38:28.491Z,28.00
2019-04-01T08:40:57.583Z,27.77
2019-04-01T08:43:26.688Z,27.23
2019-04-01T08:45:55.790Z,28.20
2019-04-01T08:48:24.980Z,25.27
2019-04-01T08:50:54.555Z,24.50
2019-04-01T08:53:23.934Z,26.67
2019-04-01T08:56:00.615Z,26.87
2019-04-01T08:58:23.871Z,26.60
2019-04-01T09:00:53.392Z,25.03
2019-04-01T09:03:22.413Z,26.43
2019-04-01T09:05:51.497Z,26.50
2019-04-01T09:08:21.203Z,24.80
2019-04-01T09:10:50.299Z,24.13
2019-04-01T09:13:19.639Z,25.87
2019-04-01T09:15:48.756Z,26.20
2019-04-01T09:18:17.904Z,26.43
2019-04-01T09:20:46.896Z,25.20
2019-04-01T09:23:16.003Z,27.43
2019-04-01T09:25:45.175Z,28.20
2019-04-01T09:28:14.230Z,29.53
2019-04-01T09:30:43.454Z,27.10
2019-04-01T09:33:12.572Z,25.23
2019-04-01T09:35:41.613Z,27.43
2019-04-01T09:38:10.822Z,25.37
2019-04-01T09:40:39.905Z,26.63
2019-04-01T09:43:08.933Z,28.40
2019-04-01T09:45:37.922Z,27.77
2019-04-01T09:48:07.011Z,26.80
2019-04-01T09:50:36.114Z,24.80
2019-04-01T09:53:05.272Z,25.33
2019-04-01T09:55:34.263Z,26.00
2019-04-01T09:58:03.419Z,25.83
2019-04-01T10:00:32.514Z,26.90
2019-04-01T10:03:01.510Z,25.90
2019-04-01T10:05:30.604Z,25.50
2019-04-01T10:07:59.708Z,24.73
2019-04-01T10:10:28.873Z,24.07
2019-04-01T10:12:58.009Z,25.13
2019-04-01T10:15:27.329Z,25.40
2019-04-01T10:17:56.337Z,26.40
2019-04-01T10:20:25.410Z,25.77
2019-04-01T10:22:54.403Z,25.27
2019-04-01T10:25:23.465Z,25.10
2019-04-01T10:27:52.538Z,26.40
2019-04-01T10:30:22.848Z,25.97
2019-04-01T10:32:52.061Z,25.90
2019-04-01T10:35:21.566Z,25.53
2019-04-01T10:37:50.647Z,24.80
2019-04-01T10:40:19.736Z,25.67
2019-04-01T10:42:48.747Z,23.40
2019-04-01T10:45:18.123Z,25.30
2019-04-01T10:47:47.204Z,25.00
2019-04-01T10:50:16.758Z,25.33
2019-04-01T10:52:45.860Z,25.00
2019-04-01T10:55:15.100Z,25.30
2019-04-01T10:57:44.199Z,23.87
2019-04-01T11:00:14.375Z,22.93
2019-04-01T11:02:43.591Z,24.33
2019-04-01T11:05:12.894Z,25.40
2019-04-01T11:07:42.069Z,22.33
2019-04-01T11:10:11.958Z,24.50
2019-04-01T11:12:41.106Z,23.70
2019-04-01T11:15:10.572Z,22.97
2019-04-01T11:17:39.633Z,22.17
2019-04-01T11:20:09.290Z,23.50
2019-04-01T11:22:38.505Z,23.00
2019-04-01T11:25:07.975Z,23.20
2019-04-01T11:27:37.079Z,23.80
2019-04-01T11:30:08.019Z,24.40
2019-04-01T11:32:37.598Z,23.80
2019-04-01T11:35:06.881Z,24.63
2019-04-01T11:37:36.376Z,25.20
2019-04-01T11:40:10.203Z,23.23
2019-04-01T11:42:40.475Z,26.40
2019-04-01T11:45:08.554Z,24.90
2019-04-01T11:47:37.753Z,25.33
2019-04-01T11:50:07.307Z,23.40
2019-04-01T11:52:37.984Z,22.43
2019-04-01T11:55:08.930Z,24.17
2019-04-01T11:57:38.632Z,22.47
2019-04-01T12:00:13.270Z,24.00
2019-04-01T12:02:42.678Z,22.80
2019-04-01T12:05:11.844Z,22.77
2019-04-01T12:07:41.022Z,22.53
2019-04-01T12:10:11.032Z,24.60
2019-04-01T12:12:40.148Z,22.77
2019-04-01T12:15:11.981Z,24.00
2019-04-01T12:17:41.755Z,23.10
2019-04-01T12:20:10.879Z,22.17
2019-04-01T12:22:41.244Z,23.20
2019-04-01T12:25:10.928Z,22.93
2019-04-01T12:27:40.011Z,22.70
2019-04-01T12:30:09.173Z,21.10
2019-04-01T12:32:38.267Z,23.33
2019-04-01T12:35:07.556Z,23.43
2019-04-01T12:37:36.678Z,23.10
2019-04-01T12:40:06.190Z,23.17
2019-04-01T12:42:35.257Z,23.83
2019-04-01T12:45:05.327Z,24.03
2019-04-01T12:47:34.409Z,22.87
2019-04-01T12:50:03.587Z,22.97
2019-04-01T12:52:32.715Z,22.17
2019-04-01T12:55:01.709Z,22.80
2019-04-01T12:57:30.727Z,23.53
2019-04-01T12:59:59.639Z,23.80
2019-04-01T13:02:28.657Z,23.17
2019-04-01T13:04:57.611Z,24.03
2019-04-01T13:07:26.649Z,23.07
2019-04-01T13:09:55.605Z,22.93
2019-04-01T13:12:27.261Z,23.00
2019-04-01T13:14:56.327Z,22.93
2019-04-01T13:17:25.483Z,21.93
2019-04-01T13:19:54.448Z,21.87
2019-04-01T13:22:23.447Z,20.10
2019-04-01T13:24:52.519Z,20.23
2019-04-01T13:27:21.527Z,19.17
2019-04-01T13:29:50.524Z,18.90
2019-04-01T13:32:20.276Z,20.67
2019-04-01T13:34:49.780Z,19.53
2019-04-01T13:37:18.862Z,20.50
2019-04-01T13:39:47.986Z,19.17
2019-04-01T13:42:16.934Z,19.57
2019-04-01T13:44:45.922Z,21.60
2019-04-01T13:47:15.023Z,20.40
2019-04-01T13:49:44.067Z,19.00
2019-04-01T13:52:13.127Z,19.57
2019-04-01T13:54:42.499Z,19.83
2019-04-01T13:57:13.018Z,19.03
2019-04-01T13:59:49.071Z,20.63
2019-04-01T14:02:13.058Z,19.53
2019-04-01T14:04:42.103Z,20.00
2019-04-01T14:07:11.138Z,19.27
2019-04-01T14:09:40.393Z,19.70
2019-04-01T14:12:09.861Z,19.13
2019-04-01T14:14:38.879Z,20.07
2019-04-01T14:17:08.340Z,18.73
2019-04-01T14:19:37.314Z,18.50
2019-04-01T14:22:06.755Z,18.57
2019-04-01T14:24:36.561Z,18.53
2019-04-01T14:27:05.699Z,19.10
2019-04-01T14:29:36.494Z,18.20
2019-04-01T14:32:05.627Z,17.30
2019-04-01T14:34:35.491Z,17.97
2019-04-01T14:37:05.003Z,17.20
2019-04-01T14:39:34.912Z,16.97
2019-04-01T14:42:04.158Z,16.50
2019-04-01T14:44:33.231Z,17.10
2019-04-01T14:47:03.678Z,17.53
2019-04-01T14:49:33.354Z,17.33
2019-04-01T14:52:02.496Z,17.13
2019-04-01T14:54:31.536Z,17.40
2019-04-01T14:57:00.814Z,17.87
2019-04-01T14:59:29.760Z,17.97
2019-04-01T15:01:59.330Z,17.87
2019-04-01T15:04:29.471Z,18.33
2019-04-01T15:06:58.595Z,17.50
2019-04-01T15:09:27.768Z,18.40
2019-04-01T15:11:56.884Z,17.47
2019-04-01T15:14:25.908Z,17.47
2019-04-01T15:16:54.902Z,16.40
2019-04-01T15:19:23.962Z,18.80
2019-04-01T15:21:53.028Z,17.33
2019-04-01T15:24:22.052Z,16.40
2019-04-01T15:26:50.986Z,15.60
2019-04-01T15:29:20.034Z,16.83
2019-04-01T15:31:49.107Z,16.13
2019-04-01T15:34:19.369Z,17.70
2019-04-01T15:36:48.699Z,16.87
2019-04-01T15:39:18.025Z,16.60
2019-04-01T15:41:47.170Z,15.53
2019-04-01T15:44:16.098Z,15.77
2019-04-01T15:46:45.184Z,15.57
2019-04-01T15:49:14.294Z,15.30
2019-04-01T15:51:43.422Z,15.40
2019-04-01T15:54:12.515Z,17.00
2019-04-01T15:56:42.497Z,17.57
2019-04-01T15:59:11.516Z,17.77
2019-04-01T16:01:40.531Z,17.10
2019-04-01T16:04:09.615Z,16.43
2019-04-01T16:06:38.917Z,14.60
2019-04-01T16:09:08.205Z,15.47
2019-04-01T16:11:37.308Z,16.60
2019-04-01T16:14:06.664Z,17.53
2019-04-01T16:16:36.266Z,16.30
2019-04-01T16:19:05.833Z,16.57
2019-04-01T16:21:35.205Z,17.07
2019-04-01T16:24:04.399Z,17.60
2019-04-01T16:26:33.514Z,16.20
2019-04-01T16:29:02.784Z,17.20
2019-04-01T16:31:31.950Z,16.50
2019-04-01T16:34:01.039Z,16.13
2019-04-01T16:36:30.054Z,18.33
2019-04-01T16:38:59.396Z,16.97
2019-04-01T16:41:28.546Z,17.30
2019-04-01T16:43:57.693Z,16.33
2019-04-01T16:46:26.749Z,15.23
2019-04-01T16:48:55.748Z,16.93
2019-04-01T16:51:24.831Z,16.30
2019-04-01T16:53:56.056Z,16.17
2019-04-01T16:56:24.668Z,16.67
2019-04-01T16:58:53.834Z,15.90
2019-04-01T17:01:23.323Z,16.67
2019-04-01T17:03:52.756Z,17.80
2019-04-01T17:06:21.944Z,16.83
2019-04-01T17:08:50.973Z,17.13
2019-04-01T17:11:20.239Z,16.50
2019-04-01T17:13:49.377Z,15.53
2019-04-01T17:16:18.490Z,15.80
2019-04-01T17:18:47.546Z,14.50
2019-04-01T17:21:16.546Z,16.07
2019-04-01T17:23:45.634Z,14.93
2019-04-01T17:26:14.790Z,16.23
2019-04-01T17:28:43.826Z,14.53
2019-04-01T17:31:12.819Z,15.47
2019-04-01T17:33:41.755Z,16.10
2019-04-01T17:36:11.190Z,15.50
2019-04-01T17:38:40.499Z,15.17
2019-04-01T17:41:09.706Z,17.23
2019-04-01T17:43:38.834Z,15.00
2019-04-01T17:46:08.224Z,15.37
2019-04-01T17:48:38.046Z,15.73
2019-04-01T17:51:07.076Z,14.10
2019-04-01T17:53:36.126Z,15.83
2019-04-01T17:56:07.213Z,15.73
2019-04-01T17:58:36.230Z,15.93
2019-04-01T18:01:05.437Z,16.10
2019-04-01T18:03:34.544Z,14.53
2019-04-01T18:06:03.728Z,16.20
2019-04-01T18:08:34.063Z,14.20
2019-04-01T18:11:03.335Z,14.70
2019-04-01T18:13:32.514Z,14.63
2019-04-01T18:16:01.503Z,14.00
2019-04-01T18:18:33.945Z,15.10
2019-04-01T18:21:03.293Z,15.33
2019-04-01T18:23:33.001Z,17.07
2019-04-01T18:26:02.020Z,16.47
2019-04-01T18:28:31.280Z,14.50
2019-04-01T18:31:01.247Z,14.67
2019-04-01T18:33:30.785Z,17.10
2019-04-01T18:36:00.237Z,14.70
2019-04-01T18:38:29.765Z,15.10
2019-04-01T18:40:59.119Z,13.93
2019-04-01T18:43:28.752Z,14.33
2019-04-01T18:45:57.966Z,14.00
2019-04-01T18:48:27.066Z,16.73
2019-04-01T18:50:56.870Z,14.80
2019-04-01T18:53:28.547Z,13.63
2019-04-01T18:55:56.686Z,14.63
2019-04-01T18:58:25.624Z,14.33
2019-04-01T19:00:54.538Z,13.93
2019-04-01T19:03:24.207Z,14.20
2019-04-01T19:05:53.757Z,13.03
2019-04-01T19:08:22.834Z,13.47
2019-04-01T19:11:01.709Z,13.93
2019-04-01T19:13:22.913Z,13.57
2019-04-01T19:15:53.274Z,13.47
2019-04-01T19:18:22.836Z,12.67
2019-04-01T19:20:56.856Z,13.33
2019-04-01T19:23:22.730Z,13.70
2019-04-01T19:25:51.772Z,12.37
2019-04-01T19:28:20.978Z,13.87
2019-04-01T19:30:50.046Z,13.43
2019-04-01T19:33:18.979Z,13.00
2019-04-01T19:35:47.912Z,13.10
2019-04-01T19:38:17.059Z,13.83
2019-04-01T19:40:46.064Z,13.10
2019-04-01T19:43:16.240Z,12.87
2019-04-01T19:45:45.423Z,13.17
2019-04-01T19:48:14.431Z,12.00
2019-04-01T19:50:43.456Z,12.80
2019-04-01T19:53:12.466Z,13.30
2019-04-01T19:55:43.863Z,12.93
2019-04-01T19:58:12.211Z,12.80
2019-04-01T20:00:41.599Z,14.20
2019-04-01T20:03:10.532Z,13.37
2019-04-01T20:05:39.531Z,12.20
2019-04-01T20:08:08.552Z,12.93
2019-04-01T20:10:37.590Z,13.13
2019-04-01T20:13:06.686Z,13.30
2019-04-01T20:15:35.840Z,12.50
2019-04-01T20:18:05.123Z,12.47
2019-04-01T20:20:34.218Z,12.80
2019-04-01T20:23:03.286Z,14.00
2019-04-01T20:25:32.403Z,13.83
2019-04-01T20:28:01.451Z,12.90
2019-04-01T20:30:30.535Z,12.10
2019-04-01T20:32:59.555Z,23.10
2019-04-01T20:35:28.956Z,15.93
2019-04-01T20:37:58.315Z,12.63
2019-04-01T20:40:27.670Z,14.20
2019-04-01T20:42:59.295Z,12.57
2019-04-01T20:45:28.417Z,12.03
2019-04-01T20:47:57.367Z,14.57
2019-04-01T20:50:27.225Z,13.70
2019-04-01T20:52:57.325Z,14.03
2019-04-01T20:55:26.347Z,13.70
2019-04-01T20:57:55.398Z,14.03
2019-04-01T21:02:51.909Z,15.00
2019-04-01T21:05:21.028Z,13.80
2019-04-01T21:07:50.094Z,13.70
2019-04-01T21:10:19.203Z,12.50
2019-04-01T21:12:48.432Z,13.00
2019-04-01T21:15:18.723Z,13.23
2019-04-01T21:17:47.732Z,14.27
2019-04-01T21:20:16.860Z,14.60
2019-04-01T21:22:45.799Z,13.60
2019-04-01T21:25:15.307Z,15.40
2019-04-01T21:27:44.313Z,13.97
2019-04-01T21:30:14.462Z,14.83
2019-04-01T21:32:45.127Z,13.80
2019-04-01T21:35:14.340Z,13.87
2019-04-01T21:37:43.411Z,13.40
2019-04-01T21:40:13.023Z,14.20
2019-04-01T21:42:43.257Z,13.60
2019-04-01T21:45:12.850Z,15.03
2019-04-01T21:47:41.863Z,14.33
2019-04-01T21:50:11.151Z,15.20
2019-04-01T21:52:40.147Z,14.83
2019-04-01T21:55:09.223Z,14.37
2019-04-01T21:57:38.236Z,14.07
2019-04-01T22:00:08.891Z,13.97
2019-04-01T22:02:38.190Z,14.77
2019-04-01T22:05:08.200Z,15.83
2019-04-01T22:07:38.146Z,14.60
2019-04-01T22:10:07.602Z,14.97
2019-04-01T22:12:37.091Z,14.07
2019-04-01T22:15:06.806Z,14.70
2019-04-01T22:17:35.901Z,14.93
2019-04-01T22:20:07.370Z,13.90
2019-04-01T22:22:37.338Z,15.33
2019-04-01T22:25:06.834Z,14.17
2019-04-01T22:27:35.894Z,13.43
